sensor_id;sensor_type;location;lat;lon;timestamp;pressure;altitude;pressure_sealevel;temperature;humidity
55687;BME280;41911;52.362;4.978;2023-04-21T00:00:00;101694.86;;;10.22;45.30
55687;BME280;41911;52.362;4.978;2023-04-21T00:00:32;101694.73;;;9.91;45.25
55687;BME280;41911;52.362;4.978;2023-04-21T00:01:03;101694.35;;;10.11;45.14
55687;BME280;41911;52.362;4.978;2023-04-21T00:01:34;101697.79;;;9.79;45.18
55687;BME280;41911;52.362;4.978;2023-04-21T00:02:05;101695.77;;;9.79;45.65
55687;BME280;41911;52.362;4.978;2023-04-21T00:02:36;101698.29;;;9.98;44.91
55687;BME280;41911;52.362;4.978;2023-04-21T00:03:07;101697.64;;;9.71;45.22
55687;BME280;41911;52.362;4.978;2023-04-21T00:03:38;101700.52;;;10.02;44.91
55687;BME280;41911;52.362;4.978;2023-04-21T00:04:09;101697.66;;;10.07;45.04
55687;BME280;41911;52.362;4.978;2023-04-21T00:04:40;101692.72;;;9.49;45.24
55687;BME280;41911;52.362;4.978;2023-04-21T00:05:11;101694.81;;;10.24;45.07
55687;BME280;41911;52.362;4.978;2023-04-21T00:05:42;101695.96;;;9.94;45.19
55687;BME280;41911;52.362;4.978;2023-04-21T00:06:13;101695.25;;;9.84;45.33
55687;BME280;41911;52.362;4.978;2023-04-21T00:06:44;101696.92;;;9.70;45.09
55687;BME280;41911;52.362;4.978;2023-04-21T00:07:15;101697.60;;;10.02;45.12
55687;BME280;41911;52.362;4.978;2023-04-21T00:07:46;101698.70;;;10.07;44.98
55687;BME280;41911;52.362;4.978;2023-04-21T00:08:18;101693.81;;;10.08;45.21
55687;BME280;41911;52.362;4.978;2023-04-21T00:08:49;101695.31;;;9.41;45.65
55687;BME280;41911;52.362;4.978;2023-04-21T00:09:20;101695.58;;;9.97;45.69
55687;BME280;41911;52.362;4.978;2023-04-21T00:09:51;101692.76;;;9.97;45.76
55687;BME280;41911;52.362;4.978;2023-04-21T00:10:22;101694.69;;;9.76;45.84
55687;BME280;41911;52.362;4.978;2023-04-21T00:10:54;101695.98;;;9.97;45.58
55687;BME280;41911;52.362;4.978;2023-04-21T00:11:25;101690.86;;;9.98;45.66
55687;BME280;41911;52.362;4.978;2023-04-21T00:11:56;101690.59;;;9.77;46.02
55687;BME280;41911;52.362;4.978;2023-04-21T00:12:27;101690.22;;;9.69;45.75
55687;BME280;41911;52.362;4.978;2023-04-21T00:12:58;101692.08;;;9.72;45.89
55687;BME280;41911;52.362;4.978;2023-04-21T00:13:29;101688.52;;;9.23;45.94
55687;BME280;41911;52.362;4.978;2023-04-21T00:14:00;101686.92;;;9.56;46.22
55687;BME280;41911;52.362;4.978;2023-04-21T00:14:31;101685.52;;;9.75;45.92
55687;BME280;41911;52.362;4.978;2023-04-21T00:15:03;101687.45;;;9.88;45.77
55687;BME280;41911;52.362;4.978;2023-04-21T00:15:34;101681.47;;;9.76;45.92
55687;BME280;41911;52.362;4.978;2023-04-21T00:16:06;101685.56;;;9.59;45.83
55687;BME280;41911;52.362;4.978;2023-04-21T00:16:37;101680.51;;;9.89;45.70
55687;BME280;41911;52.362;4.978;2023-04-21T00:17:08;101679.31;;;9.82;45.70
55687;BME280;41911;52.362;4.978;2023-04-21T00:17:39;101678.79;;;9.83;46.00
55687;BME280;41911;52.362;4.978;2023-04-21T00:18:10;101677.13;;;10.11;45.59
55687;BME280;41911;52.362;4.978;2023-04-21T00:18:40;101674.26;;;9.82;45.86
55687;BME280;41911;52.362;4.978;2023-04-21T00:19:16;101671.48;;;9.82;46.54
55687;BME280;41911;52.362;4.978;2023-04-21T00:19:47;101669.70;;;9.77;46.50
55687;BME280;41911;52.362;4.978;2023-04-21T00:20:18;101668.31;;;9.80;46.88
55687;BME280;41911;52.362;4.978;2023-04-21T00:20:49;101666.84;;;9.48;47.02
55687;BME280;41911;52.362;4.978;2023-04-21T00:21:20;101665.96;;;9.85;46.82
55687;BME280;41911;52.362;4.978;2023-04-21T00:21:51;101665.79;;;10.01;46.64
55687;BME280;41911;52.362;4.978;2023-04-21T00:22:22;101670.32;;;9.81;47.16
55687;BME280;41911;52.362;4.978;2023-04-21T00:22:54;101667.56;;;9.73;47.25
55687;BME280;41911;52.362;4.978;2023-04-21T00:23:25;101668.60;;;9.78;47.54
55687;BME280;41911;52.362;4.978;2023-04-21T00:23:56;101670.15;;;9.59;47.44
55687;BME280;41911;52.362;4.978;2023-04-21T00:24:28;101668.02;;;9.88;47.67
55687;BME280;41911;52.362;4.978;2023-04-21T00:24:59;101670.55;;;9.67;47.11
55687;BME280;41911;52.362;4.978;2023-04-21T00:25:30;101667.98;;;9.72;47.54
55687;BME280;41911;52.362;4.978;2023-04-21T00:26:01;101666.68;;;9.84;47.60
55687;BME280;41911;52.362;4.978;2023-04-21T00:26:32;101666.83;;;9.71;47.66
55687;BME280;41911;52.362;4.978;2023-04-21T00:27:03;101664.86;;;9.56;48.00
55687;BME280;41911;52.362;4.978;2023-04-21T00:27:36;101667.78;;;9.69;47.95
55687;BME280;41911;52.362;4.978;2023-04-21T00:28:07;101663.97;;;9.36;48.37
55687;BME280;41911;52.362;4.978;2023-04-21T00:28:38;101667.18;;;9.40;48.50
55687;BME280;41911;52.362;4.978;2023-04-21T00:29:09;101667.37;;;9.13;48.43
55687;BME280;41911;52.362;4.978;2023-04-21T00:29:40;101668.21;;;9.32;48.70
55687;BME280;41911;52.362;4.978;2023-04-21T00:30:12;101665.33;;;8.99;49.36
55687;BME280;41911;52.362;4.978;2023-04-21T00:30:43;101670.69;;;9.13;49.40
55687;BME280;41911;52.362;4.978;2023-04-21T00:31:14;101666.33;;;9.46;49.18
55687;BME280;41911;52.362;4.978;2023-04-21T00:31:46;101668.75;;;9.26;48.98
55687;BME280;41911;52.362;4.978;2023-04-21T00:32:17;101664.08;;;9.24;49.15
55687;BME280;41911;52.362;4.978;2023-04-21T00:32:48;101665.21;;;9.22;49.55
55687;BME280;41911;52.362;4.978;2023-04-21T00:33:19;101661.62;;;9.17;49.49
55687;BME280;41911;52.362;4.978;2023-04-21T00:33:50;101662.41;;;9.08;49.69
55687;BME280;41911;52.362;4.978;2023-04-21T00:34:21;101662.43;;;9.28;49.26
55687;BME280;41911;52.362;4.978;2023-04-21T00:34:52;101659.79;;;9.32;49.20
55687;BME280;41911;52.362;4.978;2023-04-21T00:35:23;101658.14;;;9.49;49.44
55687;BME280;41911;52.362;4.978;2023-04-21T00:35:54;101651.78;;;9.26;49.43
55687;BME280;41911;52.362;4.978;2023-04-21T00:36:25;101651.81;;;9.30;49.63
55687;BME280;41911;52.362;4.978;2023-04-21T00:36:56;101650.21;;;9.55;49.32
55687;BME280;41911;52.362;4.978;2023-04-21T00:37:27;101642.54;;;9.37;49.49
55687;BME280;41911;52.362;4.978;2023-04-21T00:37:58;101640.21;;;9.37;49.47
55687;BME280;41911;52.362;4.978;2023-04-21T00:38:29;101640.20;;;9.84;49.47
55687;BME280;41911;52.362;4.978;2023-04-21T00:39:00;101638.82;;;9.57;49.18
55687;BME280;41911;52.362;4.978;2023-04-21T00:39:31;101634.36;;;9.28;49.84
55687;BME280;41911;52.362;4.978;2023-04-21T00:40:02;101637.63;;;9.34;49.27
55687;BME280;41911;52.362;4.978;2023-04-21T00:40:35;101637.70;;;9.20;49.92
55687;BME280;41911;52.362;4.978;2023-04-21T00:41:06;101635.15;;;9.37;49.62
55687;BME280;41911;52.362;4.978;2023-04-21T00:41:38;101636.16;;;9.34;49.66
55687;BME280;41911;52.362;4.978;2023-04-21T00:42:09;101635.07;;;9.35;49.57
55687;BME280;41911;52.362;4.978;2023-04-21T00:42:40;101633.71;;;9.30;49.81
55687;BME280;41911;52.362;4.978;2023-04-21T00:43:11;101636.83;;;9.42;49.65
55687;BME280;41911;52.362;4.978;2023-04-21T00:43:59;101636.93;;;9.38;49.72
55687;BME280;41911;52.362;4.978;2023-04-21T00:44:30;101633.45;;;10.14;49.61
55687;BME280;41911;52.362;4.978;2023-04-21T00:45:01;101635.22;;;9.55;49.49
55687;BME280;41911;52.362;4.978;2023-04-21T00:45:32;101634.50;;;9.54;49.77
55687;BME280;41911;52.362;4.978;2023-04-21T00:46:03;101630.39;;;9.59;49.59
55687;BME280;41911;52.362;4.978;2023-04-21T00:46:36;101631.44;;;9.63;49.75
55687;BME280;41911;52.362;4.978;2023-04-21T00:47:07;101631.39;;;9.65;49.68
55687;BME280;41911;52.362;4.978;2023-04-21T00:47:38;101630.91;;;9.52;49.86
55687;BME280;41911;52.362;4.978;2023-04-21T00:48:10;101631.64;;;9.40;49.80
55687;BME280;41911;52.362;4.978;2023-04-21T00:48:41;101631.02;;;9.40;49.83
55687;BME280;41911;52.362;4.978;2023-04-21T00:49:12;101633.58;;;9.47;49.95
55687;BME280;41911;52.362;4.978;2023-04-21T00:49:44;101629.96;;;9.46;49.86
55687;BME280;41911;52.362;4.978;2023-04-21T00:50:15;101628.98;;;9.51;49.83
55687;BME280;41911;52.362;4.978;2023-04-21T00:50:46;101631.42;;;9.52;49.83
55687;BME280;41911;52.362;4.978;2023-04-21T00:51:17;101633.16;;;9.61;49.88
55687;BME280;41911;52.362;4.978;2023-04-21T00:51:49;101633.13;;;9.60;49.39
55687;BME280;41911;52.362;4.978;2023-04-21T00:52:20;101628.89;;;9.48;49.92
55687;BME280;41911;52.362;4.978;2023-04-21T00:52:51;101631.26;;;9.84;49.79
55687;BME280;41911;52.362;4.978;2023-04-21T00:53:23;101631.24;;;9.20;50.19
55687;BME280;41911;52.362;4.978;2023-04-21T00:53:54;101636.65;;;9.41;50.16
55687;BME280;41911;52.362;4.978;2023-04-21T00:54:26;101633.45;;;9.05;50.18
55687;BME280;41911;52.362;4.978;2023-04-21T00:54:58;101635.26;;;9.00;50.37
55687;BME280;41911;52.362;4.978;2023-04-21T00:55:29;101629.99;;;9.67;50.47
55687;BME280;41911;52.362;4.978;2023-04-21T00:56:00;101629.29;;;9.03;50.60
55687;BME280;41911;52.362;4.978;2023-04-21T00:56:33;101630.21;;;8.95;50.85
55687;BME280;41911;52.362;4.978;2023-04-21T00:57:05;101629.37;;;9.02;50.75
55687;BME280;41911;52.362;4.978;2023-04-21T00:57:36;101630.31;;;9.38;51.02
55687;BME280;41911;52.362;4.978;2023-04-21T00:58:07;101632.01;;;8.92;50.91
55687;BME280;41911;52.362;4.978;2023-04-21T00:58:41;101629.68;;;9.19;50.81
55687;BME280;41911;52.362;4.978;2023-04-21T00:59:12;101632.90;;;8.97;50.86
55687;BME280;41911;52.362;4.978;2023-04-21T00:59:43;101629.28;;;9.13;51.26
55687;BME280;41911;52.362;4.978;2023-04-21T01:00:15;101628.65;;;8.92;51.25
55687;BME280;41911;52.362;4.978;2023-04-21T01:00:46;101630.54;;;8.75;51.19
55687;BME280;41911;52.362;4.978;2023-04-21T01:01:17;101627.55;;;8.78;51.01
55687;BME280;41911;52.362;4.978;2023-04-21T01:01:48;101629.94;;;9.24;51.31
55687;BME280;41911;52.362;4.978;2023-04-21T01:02:20;101629.09;;;8.69;51.49
55687;BME280;41911;52.362;4.978;2023-04-21T01:02:51;101627.95;;;9.15;51.59
55687;BME280;41911;52.362;4.978;2023-04-21T01:03:23;101626.98;;;9.00;51.25
55687;BME280;41911;52.362;4.978;2023-04-21T01:03:55;101628.86;;;9.49;51.59
55687;BME280;41911;52.362;4.978;2023-04-21T01:04:27;101630.99;;;9.13;51.74
55687;BME280;41911;52.362;4.978;2023-04-21T01:04:58;101627.00;;;8.72;51.76
55687;BME280;41911;52.362;4.978;2023-04-21T01:05:30;101626.58;;;9.06;52.01
55687;BME280;41911;52.362;4.978;2023-04-21T01:06:01;101625.44;;;8.71;52.07
55687;BME280;41911;52.362;4.978;2023-04-21T01:06:33;101627.20;;;9.23;52.20
55687;BME280;41911;52.362;4.978;2023-04-21T01:07:05;101626.42;;;8.85;52.15
55687;BME280;41911;52.362;4.978;2023-04-21T01:07:36;101626.74;;;8.88;52.23
55687;BME280;41911;52.362;4.978;2023-04-21T01:08:07;101622.59;;;9.15;52.16
55687;BME280;41911;52.362;4.978;2023-04-21T01:08:38;101622.99;;;9.47;52.06
55687;BME280;41911;52.362;4.978;2023-04-21T01:09:10;101619.66;;;9.22;51.93
55687;BME280;41911;52.362;4.978;2023-04-21T01:09:41;101616.95;;;9.37;52.18
55687;BME280;41911;52.362;4.978;2023-04-21T01:10:12;101616.11;;;8.73;52.07
55687;BME280;41911;52.362;4.978;2023-04-21T01:10:43;101613.02;;;8.75;52.06
55687;BME280;41911;52.362;4.978;2023-04-21T01:11:14;101614.59;;;9.17;51.88
55687;BME280;41911;52.362;4.978;2023-04-21T01:12:01;101617.81;;;9.30;52.04
55687;BME280;41911;52.362;4.978;2023-04-21T01:12:32;101618.18;;;9.22;51.97
55687;BME280;41911;52.362;4.978;2023-04-21T01:13:11;101615.46;;;8.85;51.75
55687;BME280;41911;52.362;4.978;2023-04-21T01:13:42;101618.04;;;8.92;51.79
55687;BME280;41911;52.362;4.978;2023-04-21T01:14:13;101618.02;;;9.20;51.88
55687;BME280;41911;52.362;4.978;2023-04-21T01:14:44;101616.83;;;9.71;51.86
55687;BME280;41911;52.362;4.978;2023-04-21T01:15:16;101617.37;;;9.15;51.70
55687;BME280;41911;52.362;4.978;2023-04-21T01:15:47;101617.22;;;9.11;51.66
55687;BME280;41911;52.362;4.978;2023-04-21T01:16:21;101616.14;;;9.34;51.82
55687;BME280;41911;52.362;4.978;2023-04-21T01:16:52;101614.04;;;8.94;51.89
55687;BME280;41911;52.362;4.978;2023-04-21T01:17:23;101608.18;;;9.05;51.87
55687;BME280;41911;52.362;4.978;2023-04-21T01:17:54;101605.78;;;9.06;51.71
55687;BME280;41911;52.362;4.978;2023-04-21T01:18:27;101610.25;;;9.36;51.10
55687;BME280;41911;52.362;4.978;2023-04-21T01:18:59;101608.87;;;9.34;51.41
55687;BME280;41911;52.362;4.978;2023-04-21T01:19:32;101604.95;;;9.14;51.39
55687;BME280;41911;52.362;4.978;2023-04-21T01:20:07;101607.21;;;9.00;51.66
55687;BME280;41911;52.362;4.978;2023-04-21T01:20:39;101604.75;;;8.85;51.88
55687;BME280;41911;52.362;4.978;2023-04-21T01:21:10;101606.09;;;9.02;51.77
55687;BME280;41911;52.362;4.978;2023-04-21T01:21:41;101603.75;;;8.88;51.81
55687;BME280;41911;52.362;4.978;2023-04-21T01:22:12;101605.39;;;9.06;51.70
55687;BME280;41911;52.362;4.978;2023-04-21T01:22:43;101606.56;;;9.09;51.54
55687;BME280;41911;52.362;4.978;2023-04-21T01:23:14;101608.95;;;9.10;51.73
55687;BME280;41911;52.362;4.978;2023-04-21T01:23:45;101604.31;;;8.98;51.56
55687;BME280;41911;52.362;4.978;2023-04-21T01:24:16;101605.69;;;8.99;51.75
55687;BME280;41911;52.362;4.978;2023-04-21T01:24:48;101607.05;;;9.02;51.73
55687;BME280;41911;52.362;4.978;2023-04-21T01:25:19;101605.46;;;9.07;51.84
55687;BME280;41911;52.362;4.978;2023-04-21T01:25:50;101608.80;;;9.06;51.86
55687;BME280;41911;52.362;4.978;2023-04-21T01:26:21;101603.55;;;9.05;51.93
55687;BME280;41911;52.362;4.978;2023-04-21T01:26:52;101605.94;;;9.03;51.95
55687;BME280;41911;52.362;4.978;2023-04-21T01:27:23;101607.97;;;9.18;51.84
55687;BME280;41911;52.362;4.978;2023-04-21T01:27:54;101604.96;;;9.22;51.92
55687;BME280;41911;52.362;4.978;2023-04-21T01:28:25;101602.18;;;9.07;52.07
55687;BME280;41911;52.362;4.978;2023-04-21T01:28:56;101605.22;;;9.91;51.61
55687;BME280;41911;52.362;4.978;2023-04-21T01:29:27;101604.65;;;9.30;51.57
55687;BME280;41911;52.362;4.978;2023-04-21T01:30:03;101603.07;;;9.36;51.44
55687;BME280;41911;52.362;4.978;2023-04-21T01:30:35;101602.65;;;9.38;51.47
55687;BME280;41911;52.362;4.978;2023-04-21T01:31:06;101599.37;;;9.40;51.51
55687;BME280;41911;52.362;4.978;2023-04-21T01:31:37;101598.61;;;9.34;51.49
55687;BME280;41911;52.362;4.978;2023-04-21T01:32:10;101595.46;;;9.34;51.51
55687;BME280;41911;52.362;4.978;2023-04-21T01:32:42;101598.27;;;9.32;51.51
55687;BME280;41911;52.362;4.978;2023-04-21T01:33:14;101597.46;;;9.41;51.56
55687;BME280;41911;52.362;4.978;2023-04-21T01:33:45;101599.34;;;9.41;51.71
55687;BME280;41911;52.362;4.978;2023-04-21T01:34:16;101598.19;;;9.22;51.41
55687;BME280;41911;52.362;4.978;2023-04-21T01:34:48;101597.40;;;9.50;51.29
55687;BME280;41911;52.362;4.978;2023-04-21T01:35:19;101596.15;;;9.25;51.37
55687;BME280;41911;52.362;4.978;2023-04-21T01:35:50;101596.27;;;9.49;51.42
55687;BME280;41911;52.362;4.978;2023-04-21T01:36:21;101593.65;;;9.28;51.28
55687;BME280;41911;52.362;4.978;2023-04-21T01:36:52;101592.53;;;9.54;51.30
55687;BME280;41911;52.362;4.978;2023-04-21T01:37:27;101590.24;;;9.48;51.57
55687;BME280;41911;52.362;4.978;2023-04-21T01:37:59;101590.52;;;9.25;51.47
55687;BME280;41911;52.362;4.978;2023-04-21T01:38:30;101589.60;;;9.32;51.66
55687;BME280;41911;52.362;4.978;2023-04-21T01:39:01;101588.94;;;9.35;51.66
55687;BME280;41911;52.362;4.978;2023-04-21T01:39:32;101588.11;;;9.44;51.60
55687;BME280;41911;52.362;4.978;2023-04-21T01:40:08;101589.13;;;9.50;51.59
55687;BME280;41911;52.362;4.978;2023-04-21T01:40:39;101588.44;;;9.45;51.78
55687;BME280;41911;52.362;4.978;2023-04-21T01:41:10;101583.25;;;9.55;51.70
55687;BME280;41911;52.362;4.978;2023-04-21T01:41:42;101582.40;;;9.58;51.65
55687;BME280;41911;52.362;4.978;2023-04-21T01:42:13;101583.34;;;9.24;51.21
55687;BME280;41911;52.362;4.978;2023-04-21T01:42:44;101579.58;;;9.71;51.37
55687;BME280;41911;52.362;4.978;2023-04-21T01:43:18;101580.79;;;9.77;51.25
55687;BME280;41911;52.362;4.978;2023-04-21T01:43:49;101580.30;;;9.60;51.43
55687;BME280;41911;52.362;4.978;2023-04-21T01:44:20;101577.94;;;9.73;51.36
55687;BME280;41911;52.362;4.978;2023-04-21T01:44:52;101581.15;;;9.73;51.26
55687;BME280;41911;52.362;4.978;2023-04-21T01:45:23;101582.49;;;9.83;51.20
55687;BME280;41911;52.362;4.978;2023-04-21T01:45:54;101583.33;;;9.55;51.13
55687;BME280;41911;52.362;4.978;2023-04-21T01:46:25;101587.45;;;9.51;51.26
55687;BME280;41911;52.362;4.978;2023-04-21T01:46:56;101589.37;;;9.94;51.23
55687;BME280;41911;52.362;4.978;2023-04-21T01:47:27;101586.33;;;9.83;50.94
55687;BME280;41911;52.362;4.978;2023-04-21T01:47:58;101589.34;;;9.38;50.91
55687;BME280;41911;52.362;4.978;2023-04-21T01:48:31;101590.87;;;10.01;50.97
55687;BME280;41911;52.362;4.978;2023-04-21T01:49:02;101587.44;;;9.59;50.98
55687;BME280;41911;52.362;4.978;2023-04-21T01:49:33;101587.32;;;9.70;50.83
55687;BME280;41911;52.362;4.978;2023-04-21T01:50:05;101586.74;;;9.61;50.76
55687;BME280;41911;52.362;4.978;2023-04-21T01:50:36;101587.99;;;9.82;50.99
55687;BME280;41911;52.362;4.978;2023-04-21T01:51:07;101587.48;;;9.69;51.22
55687;BME280;41911;52.362;4.978;2023-04-21T01:51:38;101588.58;;;9.52;51.03
55687;BME280;41911;52.362;4.978;2023-04-21T01:52:09;101587.70;;;10.00;50.73
55687;BME280;41911;52.362;4.978;2023-04-21T01:52:40;101584.94;;;9.95;50.89
55687;BME280;41911;52.362;4.978;2023-04-21T01:53:11;101583.72;;;9.99;51.19
55687;BME280;41911;52.362;4.978;2023-04-21T01:53:42;101580.34;;;10.00;51.06
55687;BME280;41911;52.362;4.978;2023-04-21T01:54:13;101581.27;;;9.94;51.12
55687;BME280;41911;52.362;4.978;2023-04-21T01:54:44;101581.85;;;10.02;51.17
55687;BME280;41911;52.362;4.978;2023-04-21T01:55:16;101580.56;;;9.66;50.68
55687;BME280;41911;52.362;4.978;2023-04-21T01:55:47;101576.76;;;9.60;50.83
55687;BME280;41911;52.362;4.978;2023-04-21T01:56:18;101576.68;;;9.59;51.05
55687;BME280;41911;52.362;4.978;2023-04-21T01:56:48;101573.33;;;9.52;51.17
55687;BME280;41911;52.362;4.978;2023-04-21T01:57:20;101571.46;;;9.85;50.74
55687;BME280;41911;52.362;4.978;2023-04-21T01:57:51;101572.94;;;9.94;51.23
55687;BME280;41911;52.362;4.978;2023-04-21T01:58:21;101573.74;;;10.05;50.91
55687;BME280;41911;52.362;4.978;2023-04-21T01:58:52;101576.14;;;9.76;50.87
55687;BME280;41911;52.362;4.978;2023-04-21T01:59:23;101579.04;;;9.70;50.77
55687;BME280;41911;52.362;4.978;2023-04-21T01:59:54;101579.09;;;9.79;50.80
55687;BME280;41911;52.362;4.978;2023-04-21T02:00:25;101577.65;;;9.82;51.01
55687;BME280;41911;52.362;4.978;2023-04-21T02:00:56;101575.44;;;9.87;50.75
55687;BME280;41911;52.362;4.978;2023-04-21T02:01:27;101573.45;;;9.85;50.68
55687;BME280;41911;52.362;4.978;2023-04-21T02:01:58;101573.97;;;9.98;50.58
55687;BME280;41911;52.362;4.978;2023-04-21T02:02:29;101569.84;;;9.86;50.71
55687;BME280;41911;52.362;4.978;2023-04-21T02:03:00;101568.79;;;9.87;50.59
55687;BME280;41911;52.362;4.978;2023-04-21T02:03:31;101567.14;;;9.82;50.59
55687;BME280;41911;52.362;4.978;2023-04-21T02:04:03;101568.40;;;9.66;50.58
55687;BME280;41911;52.362;4.978;2023-04-21T02:04:34;101564.71;;;9.82;50.33
55687;BME280;41911;52.362;4.978;2023-04-21T02:05:06;101566.99;;;9.80;50.33
55687;BME280;41911;52.362;4.978;2023-04-21T02:05:37;101567.17;;;9.83;50.28
55687;BME280;41911;52.362;4.978;2023-04-21T02:06:08;101568.70;;;9.79;50.37
55687;BME280;41911;52.362;4.978;2023-04-21T02:06:39;101568.35;;;9.57;50.36
55687;BME280;41911;52.362;4.978;2023-04-21T02:07:10;101571.18;;;9.90;50.48
55687;BME280;41911;52.362;4.978;2023-04-21T02:07:41;101570.00;;;9.72;50.14
55687;BME280;41911;52.362;4.978;2023-04-21T02:08:12;101568.17;;;9.89;50.09
55687;BME280;41911;52.362;4.978;2023-04-21T02:08:43;101569.04;;;9.80;50.31
55687;BME280;41911;52.362;4.978;2023-04-21T02:09:14;101570.10;;;10.07;50.68
55687;BME280;41911;52.362;4.978;2023-04-21T02:09:45;101568.70;;;9.86;50.34
55687;BME280;41911;52.362;4.978;2023-04-21T02:10:16;101567.98;;;10.14;50.31
55687;BME280;41911;52.362;4.978;2023-04-21T02:10:47;101567.78;;;9.79;50.28
55687;BME280;41911;52.362;4.978;2023-04-21T02:11:18;101566.46;;;9.74;50.43
55687;BME280;41911;52.362;4.978;2023-04-21T02:11:49;101565.56;;;9.74;50.51
55687;BME280;41911;52.362;4.978;2023-04-21T02:12:20;101563.43;;;9.76;50.47
55687;BME280;41911;52.362;4.978;2023-04-21T02:12:51;101562.33;;;9.80;50.54
55687;BME280;41911;52.362;4.978;2023-04-21T02:13:22;101560.56;;;9.99;50.63
55687;BME280;41911;52.362;4.978;2023-04-21T02:13:54;101557.99;;;9.75;50.57
55687;BME280;41911;52.362;4.978;2023-04-21T02:14:25;101559.40;;;10.12;50.39
55687;BME280;41911;52.362;4.978;2023-04-21T02:14:56;101559.47;;;10.01;50.55
55687;BME280;41911;52.362;4.978;2023-04-21T02:15:27;101562.66;;;9.74;50.55
55687;BME280;41911;52.362;4.978;2023-04-21T02:15:58;101566.84;;;10.05;50.44
55687;BME280;41911;52.362;4.978;2023-04-21T02:16:28;101568.96;;;9.77;50.58
55687;BME280;41911;52.362;4.978;2023-04-21T02:16:59;101568.70;;;10.06;50.50
55687;BME280;41911;52.362;4.978;2023-04-21T02:17:30;101567.33;;;9.78;50.64
55687;BME280;41911;52.362;4.978;2023-04-21T02:18:01;101564.45;;;9.80;50.56
55687;BME280;41911;52.362;4.978;2023-04-21T02:18:32;101562.91;;;10.31;50.71
55687;BME280;41911;52.362;4.978;2023-04-21T02:19:03;101561.91;;;9.94;50.67
55687;BME280;41911;52.362;4.978;2023-04-21T02:19:34;101561.88;;;9.88;50.71
55687;BME280;41911;52.362;4.978;2023-04-21T02:20:08;101559.96;;;10.00;50.56
55687;BME280;41911;52.362;4.978;2023-04-21T02:20:39;101557.49;;;9.68;50.66
55687;BME280;41911;52.362;4.978;2023-04-21T02:21:10;101557.19;;;9.88;50.42
55687;BME280;41911;52.362;4.978;2023-04-21T02:21:46;101557.01;;;9.85;50.59
55687;BME280;41911;52.362;4.978;2023-04-21T02:22:17;101555.24;;;9.83;50.64
55687;BME280;41911;52.362;4.978;2023-04-21T02:22:48;101555.28;;;9.89;50.32
55687;BME280;41911;52.362;4.978;2023-04-21T02:23:19;101555.71;;;9.78;50.50
55687;BME280;41911;52.362;4.978;2023-04-21T02:23:50;101559.13;;;10.12;50.52
55687;BME280;41911;52.362;4.978;2023-04-21T02:24:21;101561.41;;;9.82;50.39
55687;BME280;41911;52.362;4.978;2023-04-21T02:24:52;101561.44;;;9.86;50.28
55687;BME280;41911;52.362;4.978;2023-04-21T02:25:23;101562.25;;;9.84;50.42
55687;BME280;41911;52.362;4.978;2023-04-21T02:25:54;101560.59;;;10.46;50.57
55687;BME280;41911;52.362;4.978;2023-04-21T02:26:25;101561.81;;;10.16;50.49
55687;BME280;41911;52.362;4.978;2023-04-21T02:26:56;101561.32;;;9.89;50.45
55687;BME280;41911;52.362;4.978;2023-04-21T02:27:27;101559.97;;;9.67;50.37
55687;BME280;41911;52.362;4.978;2023-04-21T02:27:58;101559.88;;;9.80;50.65
55687;BME280;41911;52.362;4.978;2023-04-21T02:28:29;101559.73;;;9.83;50.74
55687;BME280;41911;52.362;4.978;2023-04-21T02:29:00;101558.78;;;9.60;50.54
55687;BME280;41911;52.362;4.978;2023-04-21T02:29:31;101557.20;;;10.14;50.36
55687;BME280;41911;52.362;4.978;2023-04-21T02:30:02;101553.93;;;10.18;50.54
55687;BME280;41911;52.362;4.978;2023-04-21T02:30:33;101553.79;;;9.97;50.47
55687;BME280;41911;52.362;4.978;2023-04-21T02:31:04;101555.46;;;10.03;50.41
55687;BME280;41911;52.362;4.978;2023-04-21T02:31:36;101553.78;;;10.35;50.20
55687;BME280;41911;52.362;4.978;2023-04-21T02:32:07;101551.72;;;10.03;50.36
55687;BME280;41911;52.362;4.978;2023-04-21T02:32:38;101551.84;;;9.83;50.26
55687;BME280;41911;52.362;4.978;2023-04-21T02:33:09;101550.93;;;10.05;50.64
55687;BME280;41911;52.362;4.978;2023-04-21T02:33:40;101552.61;;;10.20;50.43
55687;BME280;41911;52.362;4.978;2023-04-21T02:34:11;101553.42;;;10.14;50.29
55687;BME280;41911;52.362;4.978;2023-04-21T02:34:47;101550.99;;;10.08;50.26
55687;BME280;41911;52.362;4.978;2023-04-21T02:35:18;101552.88;;;10.11;50.24
55687;BME280;41911;52.362;4.978;2023-04-21T02:35:49;101554.68;;;9.85;50.24
55687;BME280;41911;52.362;4.978;2023-04-21T02:36:20;101555.49;;;9.87;50.21
55687;BME280;41911;52.362;4.978;2023-04-21T02:36:50;101556.21;;;10.13;50.16
55687;BME280;41911;52.362;4.978;2023-04-21T02:37:21;101560.83;;;9.85;50.23
55687;BME280;41911;52.362;4.978;2023-04-21T02:37:52;101561.83;;;10.11;50.13
55687;BME280;41911;52.362;4.978;2023-04-21T02:38:23;101562.61;;;10.27;50.08
55687;BME280;41911;52.362;4.978;2023-04-21T02:38:54;101562.47;;;9.89;50.16
55687;BME280;41911;52.362;4.978;2023-04-21T02:39:25;101561.30;;;10.15;50.13
55687;BME280;41911;52.362;4.978;2023-04-21T02:39:56;101559.86;;;10.07;50.12
55687;BME280;41911;52.362;4.978;2023-04-21T02:40:27;101557.94;;;10.06;50.46
55687;BME280;41911;52.362;4.978;2023-04-21T02:40:58;101557.56;;;10.19;50.26
55687;BME280;41911;52.362;4.978;2023-04-21T02:41:29;101557.51;;;10.18;50.39
55687;BME280;41911;52.362;4.978;2023-04-21T02:42:00;101554.96;;;10.49;50.20
55687;BME280;41911;52.362;4.978;2023-04-21T02:42:32;101556.17;;;10.11;50.24
55687;BME280;41911;52.362;4.978;2023-04-21T02:43:03;101556.67;;;10.16;50.25
55687;BME280;41911;52.362;4.978;2023-04-21T02:43:34;101556.70;;;10.15;50.26
55687;BME280;41911;52.362;4.978;2023-04-21T02:44:05;101553.18;;;9.87;50.35
55687;BME280;41911;52.362;4.978;2023-04-21T02:44:36;101552.06;;;9.68;50.19
55687;BME280;41911;52.362;4.978;2023-04-21T02:45:08;101548.21;;;10.26;50.32
55687;BME280;41911;52.362;4.978;2023-04-21T02:45:40;101543.90;;;9.94;50.23